Time;durP1;ratioP1;P1;durP2;ratioP2;P2;SDS_P1;SDS_P2;PMS_P1;PMS_P2;Temp;Humidity;BMP_temperature;BMP_pressure;BME280_temperature;BME280_humidity;BME280_pressure;Samples;Min_cycle;Max_cycle;Signal;HPM_P1;HPM_P2
2021/05/31 00:01:34;;;;;;;5.55;5.05;;;23.30;54.80;;;;;;5046833;28;20645;-43
2021/05/31 00:04:00;;;;;;;5.47;5.10;;;23.30;54.90;;;;;;5051709;28;20031;-43
2021/05/31 00:06:25;;;;;;;4.63;4.38;;;23.30;54.90;;;;;;5052516;28;20037;-43
2021/05/31 00:08:51;;;;;;;5.57;5.15;;;23.30;54.90;;;;;;5049610;28;20083;-42
2021/05/31 00:11:17;;;;;;;5.28;4.88;;;23.30;54.90;;;;;;5051782;28;20038;-42
2021/05/31 00:13:43;;;;;;;4.95;4.65;;;23.30;55.00;;;;;;5045966;28;20021;-42
2021/05/31 00:16:09;;;;;;;4.90;4.50;;;23.30;54.80;;;;;;5063474;28;20111;-44
2021/05/31 00:18:34;;;;;;;4.90;4.50;;;23.30;55.00;;;;;;5053593;28;20047;-43
2021/05/31 00:21:00;;;;;;;5.32;5.03;;;23.30;55.00;;;;;;5049924;28;20104;-41
2021/05/31 00:23:25;;;;;;;4.97;4.57;;;23.30;54.90;;;;;;5049896;28;20025;-40
2021/05/31 00:25:51;;;;;;;5.18;4.88;;;23.30;54.90;;;;;;5048909;28;20054;-41
2021/05/31 00:28:16;;;;;;;4.90;4.60;;;23.30;54.90;;;;;;5047654;28;20031;-40
2021/05/31 00:30:42;;;;;;;5.50;5.10;;;23.30;55.10;;;;;;5052403;28;20035;-42
2021/05/31 00:33:08;;;;;;;5.00;4.70;;;23.20;54.90;;;;;;5049804;28;20025;-39
2021/05/31 00:35:33;;;;;;;5.30;5.00;;;23.30;55.00;;;;;;5049756;28;20467;-42
2021/05/31 00:37:59;;;;;;;5.43;5.07;;;23.20;55.10;;;;;;5049862;28;20027;-42
2021/05/31 00:40:25;;;;;;;6.10;5.47;;;23.10;55.10;;;;;;5045803;28;20021;-44
2021/05/31 00:42:51;;;;;;;5.20;4.90;;;23.20;55.10;;;;;;5052312;28;20056;-43
2021/05/31 00:45:16;;;;;;;5.50;5.10;;;23.20;55.00;;;;;;5051027;28;20029;-42
2021/05/31 00:47:42;;;;;;;5.22;4.80;;;23.20;55.10;;;;;;5049627;28;20036;-41
2021/05/31 00:50:08;;;;;;;4.97;4.70;;;23.10;55.10;;;;;;5051281;28;20024;-42
2021/05/31 00:52:33;;;;;;;4.95;4.65;;;23.10;55.00;;;;;;5046501;28;20029;-40
2021/05/31 00:54:59;;;;;;;4.57;4.28;;;23.20;55.00;;;;;;5051549;28;20039;-44
2021/05/31 00:57:25;;;;;;;5.55;5.18;;;23.20;55.10;;;;;;5050450;28;20060;-41
2021/05/31 00:59:51;;;;;;;5.68;5.28;;;23.10;55.20;;;;;;5050279;28;20064;-41
2021/05/31 01:02:16;;;;;;;5.07;4.78;;;23.10;55.10;;;;;;5047964;28;20499;-42
2021/05/31 01:04:42;;;;;;;5.38;4.97;;;23.10;55.20;;;;;;5063395;28;20063;-42
2021/05/31 01:07:19;;;;;;;5.82;5.43;;;23.20;55.10;;;;;;5053247;28;20577;-42
2021/05/31 01:10:06;;;;;;;5.40;5.00;;;23.10;55.20;;;;;;5056128;28;20105;-41
2021/05/31 01:12:34;;;;;;;5.28;4.93;;;23.10;55.30;;;;;;5055528;28;20056;-41
2021/05/31 01:15:17;;;;;;;4.60;4.40;;;23.10;55.20;;;;;;5054096;28;20029;-43
2021/05/31 01:17:59;;;;;;;5.07;4.72;;;23.10;55.30;;;;;;5054231;28;20039;-40
2021/05/31 01:20:35;;;;;;;5.03;4.63;;;23.10;55.10;;;;;;5054330;28;20082;-39
2021/05/31 01:23:03;;;;;;;4.78;4.47;;;23.20;55.10;;;;;;5054485;28;20431;-41
2021/05/31 01:25:31;;;;;;;4.80;4.50;;;23.10;55.20;;;;;;5047772;28;20051;-42
2021/05/31 01:28:11;;;;;;;5.07;4.68;;;23.10;55.30;;;;;;5055448;28;20021;-41
2021/05/31 01:30:40;;;;;;;5.43;5.13;;;23.00;55.30;;;;;;5033277;28;20025;-42
2021/05/31 01:33:07;;;;;;;5.03;4.72;;;23.00;55.20;;;;;;5055261;28;20025;-41
2021/05/31 01:35:33;;;;;;;4.90;4.53;;;23.00;55.40;;;;;;5043876;28;20032;-41
2021/05/31 01:37:59;;;;;;;4.60;4.30;;;23.00;55.50;;;;;;5053938;28;20077;-43
2021/05/31 01:40:24;;;;;;;5.03;4.65;;;23.00;55.20;;;;;;5047503;28;20033;-42
2021/05/31 01:42:55;;;;;;;5.10;4.80;;;23.00;55.10;;;;;;5034026;28;20029;-42
2021/05/31 01:45:21;;;;;;;4.85;4.55;;;23.00;55.20;;;;;;5060799;28;20032;-41
2021/05/31 01:47:46;;;;;;;5.03;4.68;;;23.10;55.00;;;;;;5041864;28;20033;-41
2021/05/31 01:50:12;;;;;;;4.53;4.22;;;23.10;55.10;;;;;;5053363;28;20025;-41
2021/05/31 01:52:39;;;;;;;4.60;4.40;;;23.10;55.00;;;;;;5051278;28;20036;-40
2021/05/31 01:55:05;;;;;;;4.65;4.45;;;23.10;55.00;;;;;;5035065;28;20036;-41
2021/05/31 01:57:31;;;;;;;4.68;4.38;;;23.10;55.00;;;;;;5033609;28;20043;-42
2021/05/31 01:59:56;;;;;;;4.38;4.07;;;23.10;55.00;;;;;;5049709;28;20034;-43
2021/05/31 02:02:22;;;;;;;4.80;4.50;;;23.10;54.90;;;;;;5033449;28;20033;-40
2021/05/31 02:04:47;;;;;;;4.40;4.10;;;23.00;55.00;;;;;;5030685;28;20112;-41
2021/05/31 02:07:13;;;;;;;4.95;4.60;;;23.00;55.00;;;;;;5030967;28;20091;-41
2021/05/31 02:09:38;;;;;;;4.18;3.97;;;23.00;55.10;;;;;;5035991;28;20520;-42
2021/05/31 02:12:04;;;;;;;5.15;4.60;;;23.00;55.20;;;;;;5032029;28;20037;-42
2021/05/31 02:14:45;;;;;;;4.70;4.30;;;23.00;55.10;;;;;;5033139;28;20026;-42
2021/05/31 02:17:41;;;;;;;4.70;4.28;;;23.00;55.10;;;;;;5031870;28;20086;-42
2021/05/31 02:20:09;;;;;;;4.60;4.30;;;22.90;55.20;;;;;;5032925;28;20487;-42
2021/05/31 02:22:37;;;;;;;4.85;4.45;;;22.90;55.30;;;;;;5028528;28;20459;-41
2021/05/31 02:25:03;;;;;;;4.28;4.00;;;23.00;55.40;;;;;;5032554;28;20056;-38
2021/05/31 02:27:29;;;;;;;4.18;3.97;;;22.90;55.20;;;;;;5031492;28;20566;-42
2021/05/31 02:29:54;;;;;;;4.70;4.40;;;22.90;56.00;;;;;;5042559;28;20030;-43
2021/05/31 02:32:20;;;;;;;4.95;4.65;;;22.90;55.40;;;;;;5040055;28;20026;-41
2021/05/31 02:34:46;;;;;;;4.10;3.80;;;22.90;55.20;;;;;;5031296;28;20030;-41
2021/05/31 02:37:12;;;;;;;4.47;4.22;;;23.00;55.10;;;;;;5031186;28;20108;-42
2021/05/31 02:39:38;;;;;;;4.13;3.92;;;23.00;55.10;;;;;;5033483;28;20065;-42
2021/05/31 02:42:04;;;;;;;4.50;4.20;;;22.90;55.10;;;;;;5039341;28;20598;-42
2021/05/31 02:44:29;;;;;;;4.38;4.07;;;23.00;55.20;;;;;;5036962;28;20147;-43
2021/05/31 02:46:55;;;;;;;4.38;4.07;;;23.00;55.00;;;;;;5032533;28;20051;-41
2021/05/31 02:49:21;;;;;;;4.28;3.97;;;22.90;55.10;;;;;;5028083;28;20080;-41
2021/05/31 02:51:46;;;;;;;4.30;4.00;;;22.90;55.30;;;;;;5034489;28;20074;-41
2021/05/31 02:54:13;;;;;;;4.20;3.97;;;22.90;55.90;;;;;;5038765;28;20090;-41
2021/05/31 02:56:39;;;;;;;4.25;3.95;;;22.90;55.10;;;;;;5038526;28;20045;-41
2021/05/31 02:59:04;;;;;;;4.53;4.22;;;22.90;55.10;;;;;;5048722;28;20033;-43
2021/05/31 03:01:30;;;;;;;3.92;3.72;;;22.90;55.10;;;;;;5048611;28;20032;-41
2021/05/31 03:03:56;;;;;;;3.83;3.58;;;22.90;55.10;;;;;;5054349;28;20025;-41
2021/05/31 03:06:21;;;;;;;4.22;3.92;;;22.90;55.10;;;;;;5050964;28;20041;-41
2021/05/31 03:08:47;;;;;;;4.15;3.95;;;22.80;55.10;;;;;;5050601;28;20029;-43
2021/05/31 03:11:12;;;;;;;4.50;4.20;;;22.90;55.00;;;;;;5050641;28;20035;-42
2021/05/31 03:13:38;;;;;;;4.70;4.35;;;22.90;55.10;;;;;;5048020;28;20030;-41
2021/05/31 03:16:04;;;;;;;4.30;4.00;;;22.80;55.30;;;;;;5051616;28;20392;-42
2021/05/31 03:18:29;;;;;;;4.68;4.47;;;22.90;55.10;;;;;;5052254;28;20061;-42
2021/05/31 03:20:55;;;;;;;4.68;4.38;;;22.90;55.10;;;;;;5052191;28;20039;-42
2021/05/31 03:23:21;;;;;;;4.97;4.55;;;22.90;55.10;;;;;;5050447;28;20025;-41
2021/05/31 03:25:46;;;;;;;4.55;4.25;;;22.90;55.00;;;;;;5050181;28;20595;-40
2021/05/31 03:28:12;;;;;;;3.95;3.75;;;22.90;55.20;;;;;;5049242;28;20400;-41
2021/05/31 03:30:37;;;;;;;4.60;4.18;;;22.90;55.00;;;;;;5052523;28;20491;-43
2021/05/31 03:33:03;;;;;;;3.83;3.53;;;22.80;55.00;;;;;;5050486;28;20025;-42
2021/05/31 03:35:29;;;;;;;4.28;4.07;;;22.80;55.10;;;;;;5050437;28;20517;-41
2021/05/31 03:37:54;;;;;;;4.45;4.15;;;22.80;55.40;;;;;;5049854;28;20388;-42
2021/05/31 03:40:21;;;;;;;4.32;4.07;;;22.70;55.30;;;;;;5047513;28;20032;-42
2021/05/31 03:42:52;;;;;;;3.78;3.58;;;22.80;55.20;;;;;;5053501;28;20078;-41
2021/05/31 03:45:17;;;;;;;4.15;3.85;;;22.70;55.20;;;;;;5050383;28;20032;-41
2021/05/31 03:47:43;;;;;;;4.65;4.38;;;22.70;55.20;;;;;;5050359;28;20033;-42
2021/05/31 03:50:09;;;;;;;4.25;3.95;;;22.80;55.10;;;;;;5050235;28;20022;-43
2021/05/31 03:52:34;;;;;;;4.95;4.65;;;22.80;55.10;;;;;;5048412;28;20411;-40
2021/05/31 03:55:00;;;;;;;4.60;3.78;;;22.80;55.10;;;;;;5051814;28;20466;-43
2021/05/31 03:57:25;;;;;;;4.57;4.38;;;22.80;55.10;;;;;;5051201;28;20668;-41
2021/05/31 03:59:52;;;;;;;4.32;4.07;;;22.70;55.10;;;;;;5051326;28;20128;-41
2021/05/31 04:02:18;;;;;;;3.75;3.55;;;22.70;55.20;;;;;;5049971;28;20520;-41
2021/05/31 04:04:46;;;;;;;4.00;3.78;;;22.70;55.10;;;;;;5049533;28;20120;-41
2021/05/31 04:12:41;;;;;;;4.53;4.22;;;22.70;55.20;;;;;;5062238;28;20040;-41
2021/05/31 04:15:07;;;;;;;4.85;4.55;;;22.70;55.10;;;;;;5053488;28;20029;-41
2021/05/31 04:17:33;;;;;;;4.60;4.22;;;22.70;55.10;;;;;;5049891;28;20078;-41
2021/05/31 04:19:58;;;;;;;4.20;4.00;;;22.60;55.20;;;;;;5051263;28;20028;-41
2021/05/31 04:22:24;;;;;;;4.00;3.80;;;22.70;55.30;;;;;;5027595;28;20031;-42
2021/05/31 04:24:49;;;;;;;4.07;3.88;;;22.70;55.30;;;;;;5064695;28;20376;-42
2021/05/31 04:27:15;;;;;;;4.57;4.38;;;22.60;55.20;;;;;;5053933;28;20110;-42
2021/05/31 04:29:40;;;;;;;4.00;3.70;;;22.70;55.20;;;;;;5051959;28;20025;-42
2021/05/31 04:32:06;;;;;;;4.20;3.90;;;22.60;55.40;;;;;;5050883;28;20498;-42
2021/05/31 04:34:32;;;;;;;8.02;3.70;;;22.60;55.70;;;;;;5047759;28;20032;-42
2021/05/31 04:36:57;;;;;;;4.40;3.78;;;22.60;55.90;;;;;;5052041;28;20025;-42
2021/05/31 04:39:23;;;;;;;4.38;4.07;;;22.60;56.10;;;;;;5052181;28;20128;-42
2021/05/31 04:41:48;;;;;;;4.15;3.85;;;22.60;56.10;;;;;;5058519;28;20032;-42
2021/05/31 04:44:14;;;;;;;3.47;3.28;;;22.50;56.50;;;;;;5057020;28;20135;-42
2021/05/31 04:46:39;;;;;;;5.85;3.70;;;22.60;56.30;;;;;;5052272;28;20037;-42
2021/05/31 04:49:05;;;;;;;4.38;3.97;;;22.60;56.20;;;;;;5052863;28;20055;-42
2021/05/31 04:51:31;;;;;;;4.85;3.75;;;22.60;56.40;;;;;;5052374;28;20706;-42
2021/05/31 04:53:57;;;;;;;3.83;3.53;;;22.60;56.30;;;;;;5038919;28;20048;-42
2021/05/31 04:56:24;;;;;;;3.75;3.33;;;22.60;57.30;;;;;;5054481;28;20036;-42
2021/05/31 04:58:50;;;;;;;3.72;3.40;;;22.70;56.80;;;;;;5053233;28;20115;-42
2021/05/31 05:01:15;;;;;;;3.78;3.40;;;22.80;56.60;;;;;;5051503;28;20041;-42
2021/05/31 05:03:41;;;;;;;3.80;3.50;;;22.80;56.50;;;;;;5055267;28;20120;-41
2021/05/31 05:06:06;;;;;;;4.28;3.13;;;22.90;56.60;;;;;;5054680;28;20564;-42
2021/05/31 05:08:32;;;;;;;3.63;3.42;;;22.90;56.20;;;;;;5053235;28;20031;-42
2021/05/31 05:10:57;;;;;;;4.20;3.92;;;22.90;55.60;;;;;;5056343;28;20025;-47
2021/05/31 05:13:23;;;;;;;5.57;4.40;;;22.80;55.40;;;;;;5063619;28;20034;-41
2021/05/31 05:15:49;;;;;;;3.65;3.38;;;22.80;55.50;;;;;;5068099;28;20032;-42
2021/05/31 05:18:15;;;;;;;4.10;3.63;;;22.80;55.60;;;;;;5055292;28;20071;-44
2021/05/31 05:20:41;;;;;;;4.88;3.67;;;22.70;55.60;;;;;;5052695;28;20029;-42
2021/05/31 05:23:06;;;;;;;5.72;3.88;;;22.80;55.60;;;;;;5054445;28;20039;-42
2021/05/31 05:25:32;;;;;;;3.80;3.60;;;22.80;55.20;;;;;;5052870;28;20025;-42
2021/05/31 05:27:57;;;;;;;3.85;3.55;;;22.80;54.90;;;;;;5068817;28;20032;-41
2021/05/31 05:30:29;;;;;;;5.65;4.00;;;22.80;55.00;;;;;;5053285;28;20029;-42
2021/05/31 05:32:59;;;;;;;4.00;3.40;;;22.70;54.90;;;;;;5052093;28;20603;-42
2021/05/31 05:35:28;;;;;;;7.00;3.95;;;22.80;55.70;;;;;;5057406;28;20032;-42
2021/05/31 05:43:23;;;;;;;4.18;3.85;;;22.80;54.00;;;;;;5051384;28;20029;-42
2021/05/31 05:48:20;;;;;;;3.85;3.35;;;22.60;53.90;;;;;;5060298;28;20521;-42
2021/05/31 05:50:46;;;;;;;3.72;3.38;;;22.50;54.00;;;;;;5053207;28;20040;-43
2021/05/31 05:53:11;;;;;;;3.58;3.28;;;22.50;53.90;;;;;;5054170;28;20099;-43
2021/05/31 05:55:37;;;;;;;3.85;3.53;;;22.50;53.90;;;;;;5050679;28;20021;-41
2021/05/31 05:58:02;;;;;;;3.58;3.30;;;22.50;53.70;;;;;;5054063;28;20036;-42
2021/05/31 06:00:29;;;;;;;3.80;3.45;;;22.60;53.60;;;;;;5057375;28;20160;-41
2021/05/31 06:02:54;;;;;;;3.25;3.05;;;22.60;53.70;;;;;;5053182;28;20037;-44
2021/05/31 06:05:21;;;;;;;3.47;3.28;;;22.60;53.90;;;;;;5057060;28;20568;-40
2021/05/31 06:07:46;;;;;;;3.65;3.38;;;22.70;54.30;;;;;;5050809;28;20584;-42
2021/05/31 06:10:12;;;;;;;3.92;3.47;;;22.70;54.10;;;;;;5063709;28;20036;-42
2021/05/31 06:12:38;;;;;;;3.75;3.55;;;22.80;54.10;;;;;;5053626;28;20510;-42
2021/05/31 06:15:06;;;;;;;3.75;3.45;;;22.80;53.80;;;;;;5053341;28;20226;-42
2021/05/31 06:17:31;;;;;;;3.97;3.67;;;22.80;53.80;;;;;;5053307;28;20090;-42
2021/05/31 06:20:00;;;;;;;5.80;3.40;;;22.70;53.90;;;;;;5053184;28;20029;-42
2021/05/31 06:22:29;;;;;;;4.50;3.13;;;22.70;53.80;;;;;;5031859;28;20040;-42
2021/05/31 06:24:55;;;;;;;3.42;3.22;;;22.80;53.70;;;;;;5051185;28;20380;-42
2021/05/31 06:27:20;;;;;;;3.83;3.40;;;22.70;53.80;;;;;;5053317;28;20047;-38
2021/05/31 06:29:46;;;;;;;3.58;3.22;;;22.80;53.90;;;;;;5051550;28;20102;-42
2021/05/31 06:32:12;;;;;;;5.20;3.53;;;22.80;53.90;;;;;;5043231;28;20036;-42
2021/05/31 06:34:37;;;;;;;3.80;3.60;;;22.80;54.30;;;;;;5057389;28;20117;-41
2021/05/31 06:37:03;;;;;;;4.43;3.20;;;22.80;53.80;;;;;;5051686;28;20025;-43
2021/05/31 06:39:28;;;;;;;3.70;3.40;;;22.80;54.00;;;;;;5043799;28;20043;-42
2021/05/31 06:41:54;;;;;;;4.63;3.67;;;22.70;53.80;;;;;;5056613;28;20032;-43
2021/05/31 06:44:20;;;;;;;3.70;3.15;;;22.60;53.50;;;;;;5054245;28;20510;-42
2021/05/31 06:46:45;;;;;;;3.30;3.00;;;22.60;53.40;;;;;;5048713;28;20047;-42
2021/05/31 06:49:11;;;;;;;4.00;3.58;;;22.50;53.40;;;;;;5061028;28;20028;-42
2021/05/31 06:51:37;;;;;;;3.72;2.67;;;22.50;53.60;;;;;;5052580;28;20067;-42
2021/05/31 06:54:02;;;;;;;3.35;2.85;;;22.40;53.60;;;;;;5050937;28;20029;-42
2021/05/31 06:56:28;;;;;;;3.42;3.22;;;22.40;53.30;;;;;;5050944;28;20048;-42
2021/05/31 06:58:53;;;;;;;4.03;3.28;;;22.40;53.50;;;;;;5048615;28;20465;-42
2021/05/31 07:01:19;;;;;;;3.63;2.55;;;22.50;53.40;;;;;;5048292;28;20052;-42
2021/05/31 07:03:45;;;;;;;4.10;2.95;;;22.50;53.10;;;;;;5052190;28;20051;-42
2021/05/31 07:06:10;;;;;;;3.10;2.88;;;22.50;53.40;;;;;;5052096;28;20045;-42
2021/05/31 07:08:37;;;;;;;2.95;2.75;;;22.50;53.20;;;;;;5047077;28;20049;-42
2021/05/31 07:11:09;;;;;;;2.83;2.53;;;22.60;53.20;;;;;;5050293;28;20098;-42
2021/05/31 07:13:35;;;;;;;3.25;2.60;;;22.60;52.90;;;;;;5048438;28;20037;-44
2021/05/31 07:16:01;;;;;;;3.72;2.90;;;22.70;53.00;;;;;;5052835;28;20035;-41
2021/05/31 07:18:26;;;;;;;2.97;2.78;;;22.70;53.10;;;;;;5050394;28;20029;-42
2021/05/31 07:20:53;;;;;;;3.05;2.85;;;22.70;52.40;;;;;;5046674;28;20132;-42
2021/05/31 07:23:19;;;;;;;3.10;2.90;;;22.80;52.50;;;;;;5047512;28;20029;-42
2021/05/31 07:25:45;;;;;;;4.82;2.83;;;22.90;52.20;;;;;;5054067;28;20068;-42
2021/05/31 07:28:11;;;;;;;3.28;2.97;;;23.00;52.10;;;;;;5047150;28;20041;-42
2021/05/31 07:30:37;;;;;;;2.75;2.53;;;22.80;52.50;;;;;;5052916;28;20071;-42
2021/05/31 07:33:03;;;;;;;2.88;2.67;;;22.90;52.20;;;;;;5053749;28;20411;-42
2021/05/31 07:35:29;;;;;;;2.60;2.40;;;22.90;51.80;;;;;;5046968;28;20025;-42
2021/05/31 07:37:55;;;;;;;3.90;2.50;;;22.90;51.80;;;;;;5054277;28;20387;-42
2021/05/31 07:40:21;;;;;;;3.97;2.70;;;23.00;51.90;;;;;;5046785;28;20510;-41
2021/05/31 07:42:46;;;;;;;3.67;3.05;;;23.10;52.10;;;;;;5035173;28;20029;-41
2021/05/31 07:45:13;;;;;;;4.47;2.85;;;23.20;52.20;;;;;;5054370;28;20083;-42
2021/05/31 07:47:39;;;;;;;2.80;2.60;;;23.20;51.80;;;;;;5054391;28;20032;-42
2021/05/31 07:50:05;;;;;;;2.50;2.30;;;23.30;51.50;;;;;;5047209;28;20029;-41
2021/05/31 07:52:31;;;;;;;3.75;2.55;;;23.40;51.30;;;;;;5049812;28;20033;-40
2021/05/31 07:54:57;;;;;;;2.63;2.47;;;23.40;50.90;;;;;;5030263;28;20101;-42
2021/05/31 07:57:23;;;;;;;2.45;2.35;;;23.40;50.70;;;;;;5046270;28;20076;-41
2021/05/31 07:59:49;;;;;;;2.47;2.33;;;23.50;50.60;;;;;;5047518;28;20053;-42
2021/05/31 08:02:15;;;;;;;2.13;2.03;;;23.50;50.40;;;;;;5047685;28;20032;-42
2021/05/31 08:04:41;;;;;;;2.47;2.35;;;23.50;50.10;;;;;;5046472;28;20049;-40
2021/05/31 08:07:08;;;;;;;2.10;1.90;;;23.50;50.00;;;;;;5048069;28;20495;-42
2021/05/31 08:09:33;;;;;;;2.67;2.30;;;23.60;49.90;;;;;;5049374;28;20033;-42
2021/05/31 08:11:59;;;;;;;2.03;1.92;;;23.50;49.80;;;;;;5050581;28;20048;-41
2021/05/31 08:14:25;;;;;;;2.60;2.40;;;23.60;49.70;;;;;;5051811;28;20487;-42
2021/05/31 08:16:51;;;;;;;2.28;1.70;;;23.60;49.50;;;;;;5050461;28;20032;-42
2021/05/31 08:19:17;;;;;;;2.17;1.98;;;23.60;49.20;;;;;;5049427;28;20033;-42
2021/05/31 08:21:43;;;;;;;2.47;2.25;;;23.70;49.30;;;;;;5049998;28;20680;-42
2021/05/31 08:24:09;;;;;;;1.95;1.85;;;23.70;49.20;;;;;;5051756;28;20127;-41
2021/05/31 08:26:39;;;;;;;1.80;1.70;;;23.70;48.90;;;;;;5053084;28;20128;-42
2021/05/31 08:29:04;;;;;;;2.45;1.80;;;23.70;48.90;;;;;;5052947;28;20152;-41
2021/05/31 08:31:30;;;;;;;2.00;1.80;;;23.70;48.70;;;;;;5047218;28;20123;-42
2021/05/31 08:33:55;;;;;;;1.80;1.70;;;23.80;48.80;;;;;;5053686;28;20490;-42
2021/05/31 08:36:22;;;;;;;1.88;1.77;;;23.80;48.90;;;;;;5053821;28;20409;-42
2021/05/31 08:38:47;;;;;;;2.95;2.00;;;23.80;48.70;;;;;;5052795;28;20107;-41
2021/05/31 08:41:13;;;;;;;2.08;1.98;;;23.80;48.80;;;;;;5053242;28;20075;-42
2021/05/31 08:43:39;;;;;;;2.03;1.77;;;23.80;48.80;;;;;;5052115;28;20017;-42
2021/05/31 08:46:04;;;;;;;2.63;1.88;;;23.80;48.80;;;;;;5051979;28;20511;-42
2021/05/31 08:48:30;;;;;;;1.90;1.80;;;23.90;49.50;;;;;;5052576;28;20059;-41
2021/05/31 08:50:56;;;;;;;1.80;1.70;;;23.90;48.70;;;;;;5034389;28;20013;-41
2021/05/31 08:53:21;;;;;;;1.98;1.88;;;23.90;48.50;;;;;;5053918;28;20028;-41
2021/05/31 08:55:47;;;;;;;2.15;1.95;;;24.00;48.10;;;;;;5050545;28;20032;-42
2021/05/31 08:58:13;;;;;;;1.90;1.80;;;24.00;47.90;;;;;;5051596;28;20025;-41
2021/05/31 09:00:38;;;;;;;1.60;1.60;;;24.00;47.80;;;;;;5049624;28;20047;-42
2021/05/31 09:03:05;;;;;;;2.17;2.08;;;24.00;47.80;;;;;;5052848;28;20040;-42
2021/05/31 09:05:39;;;;;;;3.20;1.92;;;24.00;47.50;;;;;;5052581;28;20044;-42
2021/05/31 09:08:14;;;;;;;1.77;1.67;;;23.90;47.10;;;;;;5053344;28;20384;-42
2021/05/31 09:10:59;;;;;;;3.28;1.50;;;23.80;47.30;;;;;;5050791;28;20044;-41
2021/05/31 09:13:30;;;;;;;1.77;1.67;;;23.80;48.00;;;;;;5048325;28;20021;-41
2021/05/31 09:16:19;;;;;;;2.20;2.10;;;24.00;47.20;;;;;;5056256;28;20025;-41
2021/05/31 09:18:58;;;;;;;1.60;1.50;;;24.00;46.80;;;;;;5056436;28;20044;-42
2021/05/31 09:21:28;;;;;;;2.22;1.77;;;24.10;47.20;;;;;;5055456;28;20025;-42
2021/05/31 09:23:59;;;;;;;3.05;1.60;;;24.20;47.40;;;;;;5057222;28;20039;-41
2021/05/31 09:26:25;;;;;;;1.67;1.58;;;24.20;47.60;;;;;;5055711;28;20048;-41
2021/05/31 09:28:57;;;;;;;1.67;1.58;;;24.20;48.00;;;;;;5052186;28;20410;-41
2021/05/31 09:31:23;;;;;;;1.80;1.70;;;24.20;48.00;;;;;;5049395;28;20032;-41
2021/05/31 09:33:56;;;;;;;1.98;1.88;;;24.30;48.30;;;;;;5060141;28;20025;-42
2021/05/31 09:36:23;;;;;;;2.45;1.77;;;24.40;48.10;;;;;;5054483;28;20493;-41
2021/05/31 09:38:49;;;;;;;1.77;1.67;;;24.40;48.10;;;;;;5050317;28;20399;-41
2021/05/31 09:41:28;;;;;;;2.08;1.98;;;24.40;48.20;;;;;;5048256;28;20507;-42
2021/05/31 09:44:12;;;;;;;1.80;1.70;;;24.40;49.10;;;;;;5048490;28;20033;-41
2021/05/31 09:46:45;;;;;;;1.67;1.58;;;24.50;48.60;;;;;;5049870;28;20033;-42
2021/05/31 09:49:20;;;;;;;1.77;1.67;;;24.60;48.30;;;;;;5048953;28;20453;-41
2021/05/31 09:52:06;;;;;;;1.80;1.70;;;24.50;48.50;;;;;;5053494;28;20029;-41
2021/05/31 09:54:36;;;;;;;1.85;1.75;;;24.60;48.50;;;;;;5051135;28;20112;-43
2021/05/31 09:57:30;;;;;;;1.80;1.70;;;24.60;48.40;;;;;;5050158;28;20017;-41
2021/05/31 10:00:11;;;;;;;1.70;1.70;;;24.60;48.60;;;;;;5050103;28;20134;-42
2021/05/31 10:05:14;;;;;;;1.80;1.70;;;24.70;48.30;;;;;;5051269;28;20028;-41
2021/05/31 10:10:06;;;;;;;2.33;1.80;;;24.70;48.30;;;;;;5052186;28;20376;-41
2021/05/31 10:12:32;;;;;;;1.90;1.80;;;24.70;48.30;;;;;;5054013;28;20033;-43
2021/05/31 10:14:58;;;;;;;1.65;1.55;;;24.70;49.00;;;;;;5035411;28;20025;-42
2021/05/31 10:17:23;;;;;;;1.60;1.50;;;24.70;48.30;;;;;;5035845;28;20550;-42
2021/05/31 10:19:49;;;;;;;1.95;1.85;;;24.70;48.40;;;;;;5033378;28;20020;-42
2021/05/31 10:22:15;;;;;;;1.90;1.80;;;24.70;48.40;;;;;;5050516;28;20036;-37
2021/05/31 10:24:41;;;;;;;1.90;1.80;;;24.80;48.30;;;;;;5049146;28;20025;-40
2021/05/31 10:27:08;;;;;;;1.75;1.65;;;24.80;48.40;;;;;;5047590;28;20045;-41
2021/05/31 10:29:34;;;;;;;1.83;1.73;;;24.80;48.90;;;;;;5035876;28;20029;-44
2021/05/31 10:32:07;;;;;;;2.05;1.88;;;24.90;48.30;;;;;;4682630;28;10000270;-42
2021/05/31 10:34:46;;;;;;;1.90;1.80;;;24.90;48.40;;;;;;5051017;28;20071;-42
2021/05/31 10:37:21;;;;;;;1.77;1.67;;;24.90;48.40;;;;;;5063589;28;20103;-40
2021/05/31 10:40:05;;;;;;;1.80;1.70;;;25.00;48.40;;;;;;5047754;28;20086;-42
2021/05/31 10:42:49;;;;;;;1.65;1.55;;;25.00;48.20;;;;;;5048876;28;20113;-41
2021/05/31 10:45:26;;;;;;;1.60;1.60;;;25.10;48.20;;;;;;5051156;28;20196;-42
2021/05/31 10:47:58;;;;;;;4.13;1.67;;;25.10;48.40;;;;;;5051885;28;20025;-42
2021/05/31 10:50:32;;;;;;;1.60;1.50;;;25.10;48.50;;;;;;5051148;28;20032;-41
2021/05/31 10:52:58;;;;;;;1.67;1.58;;;25.10;48.70;;;;;;5043101;28;20061;-44
2021/05/31 10:55:26;;;;;;;1.55;1.48;;;25.00;48.70;;;;;;5040784;28;20025;-43
2021/05/31 10:57:56;;;;;;;5.05;1.67;;;25.00;48.80;;;;;;5049626;28;20033;-44
2021/05/31 11:00:22;;;;;;;3.45;2.15;;;25.00;49.00;;;;;;5044511;28;20123;-43
2021/05/31 11:02:48;;;;;;;8.63;1.90;;;25.00;48.80;;;;;;5042995;28;20032;-43
2021/05/31 11:05:14;;;;;;;3.40;1.65;;;25.00;49.30;;;;;;5043720;28;20033;-43
2021/05/31 11:07:40;;;;;;;1.50;1.40;;;25.00;48.90;;;;;;5043932;28;20061;-43
2021/05/31 11:10:14;;;;;;;4.10;1.70;;;25.00;48.80;;;;;;5044451;28;20033;-43
2021/05/31 11:12:39;;;;;;;1.67;1.58;;;25.00;48.70;;;;;;5051344;28;20738;-43
2021/05/31 11:15:07;;;;;;;3.22;1.70;;;25.00;48.80;;;;;;5046534;28;20045;-43
2021/05/31 11:17:32;;;;;;;2.33;1.55;;;25.00;48.50;;;;;;5051504;28;20122;-43
2021/05/31 11:19:58;;;;;;;1.60;1.50;;;24.90;48.60;;;;;;5051017;28;20487;-43
2021/05/31 11:22:25;;;;;;;4.32;1.42;;;25.00;48.80;;;;;;5029041;28;20036;-43
2021/05/31 11:25:07;;;;;;;2.25;1.58;;;25.00;48.60;;;;;;5053628;28;20025;-43
2021/05/31 11:27:35;;;;;;;1.60;1.40;;;24.80;48.80;;;;;;5053023;28;20048;-43
2021/05/31 11:30:01;;;;;;;2.25;1.52;;;24.80;48.90;;;;;;5051517;28;20025;-43
2021/05/31 11:32:27;;;;;;;1.30;1.20;;;24.80;48.40;;;;;;5049846;28;20093;-43
2021/05/31 11:35:03;;;;;;;1.70;1.60;;;24.80;48.50;;;;;;5049309;28;20121;-43
2021/05/31 11:37:30;;;;;;;1.75;1.65;;;24.70;48.40;;;;;;5012993;28;20392;-43
2021/05/31 11:39:56;;;;;;;2.67;1.70;;;24.70;48.70;;;;;;5052266;28;20168;-41
2021/05/31 11:42:22;;;;;;;1.70;1.60;;;24.70;48.50;;;;;;5052597;28;20527;-41
2021/05/31 11:44:58;;;;;;;1.77;1.67;;;24.70;49.00;;;;;;5049506;28;20372;-41
2021/05/31 11:47:27;;;;;;;1.80;1.45;;;24.70;49.40;;;;;;5050349;28;20079;-41
2021/05/31 11:49:53;;;;;;;1.80;1.40;;;24.70;48.80;;;;;;5048420;28;20021;-41
2021/05/31 11:52:22;;;;;;;1.63;1.52;;;24.70;48.80;;;;;;5046942;28;20024;-41
2021/05/31 11:54:47;;;;;;;1.75;1.55;;;24.80;48.40;;;;;;5052770;28;20021;-41
2021/05/31 11:57:14;;;;;;;1.80;1.70;;;24.70;48.80;;;;;;5055869;28;20491;-41
2021/05/31 11:59:44;;;;;;;1.52;1.42;;;24.70;48.90;;;;;;5056949;28;20045;-41
2021/05/31 12:02:10;;;;;;;1.70;1.60;;;24.80;48.70;;;;;;5050121;28;20070;-41
2021/05/31 12:04:36;;;;;;;1.50;1.40;;;24.90;48.50;;;;;;5046845;28;20455;-41
2021/05/31 12:07:04;;;;;;;1.30;1.20;;;24.80;48.80;;;;;;5050988;28;20040;-41
2021/05/31 12:09:29;;;;;;;2.72;1.40;;;24.80;48.60;;;;;;5053444;28;20032;-41
2021/05/31 12:11:55;;;;;;;1.90;1.45;;;24.90;49.10;;;;;;5049809;28;20037;-41
2021/05/31 12:14:23;;;;;;;1.13;1.13;;;24.90;48.90;;;;;;5049935;28;20597;-41
2021/05/31 12:16:56;;;;;;;1.27;1.27;;;24.90;48.80;;;;;;5048479;28;20051;-41
2021/05/31 12:19:23;;;;;;;2.28;1.40;;;24.90;49.10;;;;;;5046653;28;20031;-41
2021/05/31 12:21:49;;;;;;;2.38;1.50;;;24.90;48.40;;;;;;5065930;28;20043;-41
2021/05/31 12:24:22;;;;;;;2.00;1.25;;;24.80;48.60;;;;;;5050253;28;20032;-41
2021/05/31 12:26:48;;;;;;;1.48;1.20;;;24.80;48.40;;;;;;5050757;28;20131;-41
2021/05/31 12:29:13;;;;;;;1.58;1.48;;;24.80;49.00;;;;;;5035775;28;20507;-42
2021/05/31 12:31:39;;;;;;;1.45;1.35;;;24.80;48.80;;;;;;5051418;28;20453;-42
2021/05/31 12:34:04;;;;;;;1.85;1.30;;;24.90;48.80;;;;;;5049096;28;20033;-42
2021/05/31 12:36:30;;;;;;;1.30;1.30;;;24.90;48.70;;;;;;5051046;28;20025;-42
2021/05/31 12:38:57;;;;;;;1.55;1.45;;;25.00;48.70;;;;;;5050474;28;20452;-42
2021/05/31 12:41:23;;;;;;;1.77;1.48;;;24.90;48.80;;;;;;5048452;28;20055;-41
2021/05/31 12:43:49;;;;;;;4.35;1.42;;;24.90;48.90;;;;;;5029695;28;20120;-42
2021/05/31 12:46:18;;;;;;;1.25;1.15;;;24.90;49.20;;;;;;5047979;28;20104;-42
2021/05/31 12:48:50;;;;;;;1.60;1.40;;;24.90;48.80;;;;;;5050042;28;20028;-42
2021/05/31 12:51:16;;;;;;;1.58;1.40;;;25.00;48.60;;;;;;5046401;28;20028;-41
2021/05/31 12:53:42;;;;;;;1.80;1.70;;;25.00;49.00;;;;;;5049610;28;20593;-42
2021/05/31 12:56:07;;;;;;;1.63;1.52;;;25.00;49.10;;;;;;5050003;28;20056;-42
2021/05/31 12:58:33;;;;;;;1.63;1.52;;;25.00;49.10;;;;;;5028499;28;20053;-42
2021/05/31 13:00:59;;;;;;;1.65;1.15;;;25.00;49.30;;;;;;5052908;28;20041;-43
2021/05/31 13:03:33;;;;;;;1.63;1.52;;;25.00;49.10;;;;;;5056175;28;20484;-42
2021/05/31 13:06:00;;;;;;;1.50;1.40;;;25.00;48.80;;;;;;5061527;28;20131;-42